Track Павлов Дмитрий

Time Latitude Longitude Accuracy (66% radius in meters) Altitude (meters) Speed (km/hour) Bearing (degrees) Battery (%) GPS flag
08:41:22 57.211075 60.127682 10.720000267029 291 0 0 46 0 delete
08:41:11 57.211075 60.127682 10.720000267029 291 0 0 46 0 delete
07:40:57 57.211112 60.127692 65.391998291016 290 0 0 46 1 delete
08:40:49 57.211075 60.127682 10.720000267029 291 0 0 46 0 delete
07:40:31 57.211112 60.127692 204.75199890137 290 0 0 46 1 delete
07:40:25 57.211112 60.127692 75.040000915527 290 0 0 46 1 delete
08:40:17 57.211075 60.127682 10.720000267029 291 0 0 46 0 delete
07:40:06 57.211112 60.127692 32.159999847412 290 0 0 46 1 delete
07:39:55 57.211112 60.127692 21.440000534058 290 0 0 46 1 delete
07:39:44 57.211112 60.127692 23.583999633789 290 0 0 46 1 delete
07:39:33 57.211112 60.127692 23.583999633789 290 0 0 46 1 delete
07:39:23 57.211112 60.127692 21.440000534058 290 0 0 46 1 delete
07:39:12 57.211112 60.127692 24.656000137329 290 0 0 46 1 delete
07:39:01 57.211112 60.127692 24.656000137329 290 0 0 46 1 delete
07:38:50 57.211112 60.127692 28.944000244141 290 0 0 46 1 delete
07:38:40 57.211112 60.127692 27.872001647949 290 0 0 46 1 delete
08:38:29 57.211075 60.127682 10.720000267029 291 0 0 46 0 delete
07:38:18 57.211112 60.127692 27.872001647949 290 0 0 46 1 delete
07:38:07 57.211112 60.127692 31.088001251221 290 0 0 46 1 delete
07:37:57 57.211112 60.127692 32.159999847412 290 0 0 46 1 delete
07:37:46 57.211112 60.127692 21.440000534058 290 0 0 46 1 delete
07:37:34 57.211112 60.127693 18.224000930786 290 0 0 46 1 delete
07:37:23 57.211112 60.127693 13.936000823975 290 0 0 46 1 delete
07:37:12 57.211112 60.127695 32.159999847412 290 0 0 46 1 delete
07:37:02 57.211111 60.127698 31.088001251221 290 0 0 46 1 delete
07:36:51 57.211111 60.127700 12.864000320435 290 0 0 46 1 delete
07:36:39 57.211109 60.127706 8.576000213623 290 0 0 46 1 delete
07:36:28 57.211104 60.127726 15.00800037384 291 0 0 46 1 delete
07:36:18 57.211104 60.127724 12.864000320435 291 0 0 46 1 delete
07:36:07 57.211100 60.127723 15.00800037384 291 0 0 46 1 delete
07:35:58 57.211075 60.127682 10.720000267029 291 0 0 46 1 delete
07:35:57 57.211052 60.127644 10.720000267029 291 0.37000000476837 321.60000610352 46 1 delete
07:35:51 57.210980 60.127574 13.936000823975 292 1.0800000429153 289.20001220703 46 1 delete
07:35:46 57.210935 60.127533 11.791999816895 288 0.49000000953674 2.2999999523163 46 1 delete
07:35:42 57.210900 60.127477 9.6480007171631 288 1.1499999761581 6.5 46 1 delete
07:35:35 57.210817 60.127435 7.5040001869202 291 1.2999999523163 1.2999999523163 46 1 delete
07:35:34 57.210804 60.127422 8.576000213623 291 0.86000001430511 10.5 46 1 delete
07:35:25 57.210711 60.127361 7.5040001869202 287 0.93999999761581 9.3000001907349 46 1 delete
07:35:24 57.210701 60.127356 6.4320001602173 287 0.95999997854233 9.1999998092651 46 1 delete
07:35:17 57.210620 60.127292 7.5040001869202 290 1.2699999809265 316.29998779297 46 1 delete
07:35:14 57.210579 60.127335 7.5040001869202 291 1.1200000047684 329.79998779297 46 1 delete
07:35:09 57.210526 60.127354 8.576000213623 292 0.54000002145767 27.5 46 1 delete
07:35:03 57.210478 60.127352 6.4320001602173 293 0.93000000715256 27.60000038147 46 1 delete
07:34:59 57.210439 60.127308 6.4320001602173 295 0.75999999046326 27.700000762939 46 1 delete
07:34:52 57.210356 60.127234 6.4320001602173 291 1.0800000429153 10.699999809265 46 1 delete
07:34:45 57.210262 60.127178 7.5040001869202 294 0.25 328.79998779297 46 1 delete
07:34:41 57.210220 60.127146 7.5040001869202 295 1.0199999809265 20.200000762939 46 1 delete
07:34:36 57.210170 60.127118 8.576000213623 294 0.55000001192093 22.39999961853 46 1 delete
07:34:30 57.210126 60.127115 7.5040001869202 290 0.31000000238419 305.5 46 1 delete
07:34:21 57.210076 60.127139 6.4320001602173 295 1.3700000047684 14.300000190735 46 1 delete